sensor_id;sensor_type;location;lat;lon;timestamp;temperature;humidity
19813;DHT22;10066;48.108;11.448;2022-09-01T00:01:39;15.10;99.90
19813;DHT22;10066;48.108;11.448;2022-09-01T00:04:10;15.10;99.90
19813;DHT22;10066;48.108;11.448;2022-09-01T00:06:38;15.10;99.90
19813;DHT22;10066;48.108;11.448;2022-09-01T00:09:08;15.10;99.90
19813;DHT22;10066;48.108;11.448;2022-09-01T00:11:36;15.10;99.90
19813;DHT22;10066;48.108;11.448;2022-09-01T00:14:04;15.10;99.90
19813;DHT22;10066;48.108;11.448;2022-09-01T00:16:31;15.10;99.90
19813;DHT22;10066;48.108;11.448;2022-09-01T00:18:59;15.00;99.90
19813;DHT22;10066;48.108;11.448;2022-09-01T00:21:36;15.00;99.90
19813;DHT22;10066;48.108;11.448;2022-09-01T00:24:04;15.00;99.90
19813;DHT22;10066;48.108;11.448;2022-09-01T00:26:31;15.10;99.90
19813;DHT22;10066;48.108;11.448;2022-09-01T00:28:58;15.10;99.90
19813;DHT22;10066;48.108;11.448;2022-09-01T00:31:25;15.00;99.90
19813;DHT22;10066;48.108;11.448;2022-09-01T00:33:52;15.00;99.90
19813;DHT22;10066;48.108;11.448;2022-09-01T00:36:20;15.00;99.90
19813;DHT22;10066;48.108;11.448;2022-09-01T00:38:50;15.00;99.90
19813;DHT22;10066;48.108;11.448;2022-09-01T00:41:19;15.10;99.90
19813;DHT22;10066;48.108;11.448;2022-09-01T00:43:48;15.00;99.90
19813;DHT22;10066;48.108;11.448;2022-09-01T00:46:18;15.00;99.90
19813;DHT22;10066;48.108;11.448;2022-09-01T00:48:45;15.00;99.90
19813;DHT22;10066;48.108;11.448;2022-09-01T00:51:15;15.00;99.90
19813;DHT22;10066;48.108;11.448;2022-09-01T00:53:42;15.00;99.90
19813;DHT22;10066;48.108;11.448;2022-09-01T00:56:12;15.00;99.90
19813;DHT22;10066;48.108;11.448;2022-09-01T00:58:39;15.00;99.90
19813;DHT22;10066;48.108;11.448;2022-09-01T01:01:08;15.00;99.90
19813;DHT22;10066;48.108;11.448;2022-09-01T01:03:36;15.00;99.90
19813;DHT22;10066;48.108;11.448;2022-09-01T01:06:06;14.90;99.90
19813;DHT22;10066;48.108;11.448;2022-09-01T01:08:37;14.90;99.90
19813;DHT22;10066;48.108;11.448;2022-09-01T01:11:08;14.90;99.90
19813;DHT22;10066;48.108;11.448;2022-09-01T01:13:48;14.90;99.90
19813;DHT22;10066;48.108;11.448;2022-09-01T01:16:15;14.90;99.90
19813;DHT22;10066;48.108;11.448;2022-09-01T01:18:43;14.80;99.90
19813;DHT22;10066;48.108;11.448;2022-09-01T01:21:14;14.80;99.90
19813;DHT22;10066;48.108;11.448;2022-09-01T01:24:03;14.80;99.90
19813;DHT22;10066;48.108;11.448;2022-09-01T01:26:32;14.80;99.90
19813;DHT22;10066;48.108;11.448;2022-09-01T01:28:59;14.80;99.90
19813;DHT22;10066;48.108;11.448;2022-09-01T01:31:28;14.90;99.90
19813;DHT22;10066;48.108;11.448;2022-09-01T01:33:57;14.80;99.90
19813;DHT22;10066;48.108;11.448;2022-09-01T01:36:28;14.90;99.90
19813;DHT22;10066;48.108;11.448;2022-09-01T01:38:58;14.90;99.90
19813;DHT22;10066;48.108;11.448;2022-09-01T01:41:26;14.90;99.90
19813;DHT22;10066;48.108;11.448;2022-09-01T01:43:56;14.90;99.90
19813;DHT22;10066;48.108;11.448;2022-09-01T01:46:25;14.90;99.90
19813;DHT22;10066;48.108;11.448;2022-09-01T01:48:52;14.90;99.90
19813;DHT22;10066;48.108;11.448;2022-09-01T01:51:20;14.90;99.90
19813;DHT22;10066;48.108;11.448;2022-09-01T01:53:53;14.90;99.90
19813;DHT22;10066;48.108;11.448;2022-09-01T01:56:21;14.90;99.90
19813;DHT22;10066;48.108;11.448;2022-09-01T01:58:50;14.80;99.90
19813;DHT22;10066;48.108;11.448;2022-09-01T02:03:58;14.80;99.90
19813;DHT22;10066;48.108;11.448;2022-09-01T02:06:26;14.70;99.90
19813;DHT22;10066;48.108;11.448;2022-09-01T02:08:55;14.70;99.90
19813;DHT22;10066;48.108;11.448;2022-09-01T02:11:24;14.70;99.90
19813;DHT22;10066;48.108;11.448;2022-09-01T02:13:51;14.60;99.90
19813;DHT22;10066;48.108;11.448;2022-09-01T02:16:20;14.70;99.90
19813;DHT22;10066;48.108;11.448;2022-09-01T02:21:19;14.60;99.90
19813;DHT22;10066;48.108;11.448;2022-09-01T02:23:48;14.60;99.90
19813;DHT22;10066;48.108;11.448;2022-09-01T02:26:26;14.60;99.90
19813;DHT22;10066;48.108;11.448;2022-09-01T02:28:57;14.50;99.90
19813;DHT22;10066;48.108;11.448;2022-09-01T02:31:26;14.50;99.90
19813;DHT22;10066;48.108;11.448;2022-09-01T02:33:53;14.40;99.90
19813;DHT22;10066;48.108;11.448;2022-09-01T02:36:21;14.40;99.90
19813;DHT22;10066;48.108;11.448;2022-09-01T02:38:51;14.40;99.90
19813;DHT22;10066;48.108;11.448;2022-09-01T02:41:18;14.40;99.90
19813;DHT22;10066;48.108;11.448;2022-09-01T02:43:48;14.30;99.90
19813;DHT22;10066;48.108;11.448;2022-09-01T02:46:15;14.30;99.90
19813;DHT22;10066;48.108;11.448;2022-09-01T02:48:43;14.20;99.90
19813;DHT22;10066;48.108;11.448;2022-09-01T02:51:17;14.20;99.90
19813;DHT22;10066;48.108;11.448;2022-09-01T02:53:46;14.10;99.90
19813;DHT22;10066;48.108;11.448;2022-09-01T02:56:17;14.00;99.90
19813;DHT22;10066;48.108;11.448;2022-09-01T02:58:49;14.00;99.90
19813;DHT22;10066;48.108;11.448;2022-09-01T03:01:19;13.90;99.90
19813;DHT22;10066;48.108;11.448;2022-09-01T03:03:50;13.90;99.90
19813;DHT22;10066;48.108;11.448;2022-09-01T03:06:18;13.80;99.90
19813;DHT22;10066;48.108;11.448;2022-09-01T03:08:50;13.80;99.90
19813;DHT22;10066;48.108;11.448;2022-09-01T03:11:17;13.70;99.90
19813;DHT22;10066;48.108;11.448;2022-09-01T03:13:45;13.70;99.90
19813;DHT22;10066;48.108;11.448;2022-09-01T03:16:12;13.70;99.90
19813;DHT22;10066;48.108;11.448;2022-09-01T03:18:39;13.60;99.90
19813;DHT22;10066;48.108;11.448;2022-09-01T03:21:08;13.60;99.90
19813;DHT22;10066;48.108;11.448;2022-09-01T03:23:41;13.60;99.90
19813;DHT22;10066;48.108;11.448;2022-09-01T03:26:09;13.60;99.90
19813;DHT22;10066;48.108;11.448;2022-09-01T03:28:36;13.60;99.90
19813;DHT22;10066;48.108;11.448;2022-09-01T03:31:04;13.60;99.90
19813;DHT22;10066;48.108;11.448;2022-09-01T03:33:31;13.70;99.90
19813;DHT22;10066;48.108;11.448;2022-09-01T03:35:58;13.70;99.90
19813;DHT22;10066;48.108;11.448;2022-09-01T03:38:26;13.70;99.90
19813;DHT22;10066;48.108;11.448;2022-09-01T03:40:55;13.70;99.90
19813;DHT22;10066;48.108;11.448;2022-09-01T03:43:27;13.70;99.90
19813;DHT22;10066;48.108;11.448;2022-09-01T03:45:55;13.70;99.90
19813;DHT22;10066;48.108;11.448;2022-09-01T03:48:25;13.70;99.90
19813;DHT22;10066;48.108;11.448;2022-09-01T03:50:54;13.70;99.90
19813;DHT22;10066;48.108;11.448;2022-09-01T03:53:23;13.70;99.90
19813;DHT22;10066;48.108;11.448;2022-09-01T03:55:52;13.70;99.90
19813;DHT22;10066;48.108;11.448;2022-09-01T03:58:20;13.70;99.90
19813;DHT22;10066;48.108;11.448;2022-09-01T04:00:51;13.70;99.90
19813;DHT22;10066;48.108;11.448;2022-09-01T04:03:21;13.60;99.90
19813;DHT22;10066;48.108;11.448;2022-09-01T04:05:50;13.60;99.90
19813;DHT22;10066;48.108;11.448;2022-09-01T04:08:18;13.60;99.90
19813;DHT22;10066;48.108;11.448;2022-09-01T04:10:47;13.60;99.90
19813;DHT22;10066;48.108;11.448;2022-09-01T04:13:16;13.50;99.90
19813;DHT22;10066;48.108;11.448;2022-09-01T04:15:44;13.50;99.90
19813;DHT22;10066;48.108;11.448;2022-09-01T04:18:14;13.50;99.90
19813;DHT22;10066;48.108;11.448;2022-09-01T04:20:46;13.40;99.90
19813;DHT22;10066;48.108;11.448;2022-09-01T04:23:18;13.40;99.90
19813;DHT22;10066;48.108;11.448;2022-09-01T04:25:52;13.40;99.90
19813;DHT22;10066;48.108;11.448;2022-09-01T04:28:20;13.30;99.90
19813;DHT22;10066;48.108;11.448;2022-09-01T04:30:51;13.30;99.90
19813;DHT22;10066;48.108;11.448;2022-09-01T04:33:23;13.30;99.90
19813;DHT22;10066;48.108;11.448;2022-09-01T04:35:51;13.30;99.90
19813;DHT22;10066;48.108;11.448;2022-09-01T04:38:20;13.20;99.90
19813;DHT22;10066;48.108;11.448;2022-09-01T04:40:47;13.20;99.90
19813;DHT22;10066;48.108;11.448;2022-09-01T04:43:15;13.20;99.90
19813;DHT22;10066;48.108;11.448;2022-09-01T04:45:45;13.30;99.90
19813;DHT22;10066;48.108;11.448;2022-09-01T04:48:14;13.30;99.90
19813;DHT22;10066;48.108;11.448;2022-09-01T04:50:43;13.30;99.90
19813;DHT22;10066;48.108;11.448;2022-09-01T04:53:10;13.40;99.90
19813;DHT22;10066;48.108;11.448;2022-09-01T04:55:38;13.40;99.90
19813;DHT22;10066;48.108;11.448;2022-09-01T04:58:08;13.50;99.90
19813;DHT22;10066;48.108;11.448;2022-09-01T05:00:38;13.50;99.90
19813;DHT22;10066;48.108;11.448;2022-09-01T05:03:06;13.50;99.90
19813;DHT22;10066;48.108;11.448;2022-09-01T05:05:36;13.60;99.90
19813;DHT22;10066;48.108;11.448;2022-09-01T05:08:09;13.70;99.90
19813;DHT22;10066;48.108;11.448;2022-09-01T05:10:39;13.70;99.90
19813;DHT22;10066;48.108;11.448;2022-09-01T05:13:08;13.80;99.90
19813;DHT22;10066;48.108;11.448;2022-09-01T05:15:38;13.80;99.90
19813;DHT22;10066;48.108;11.448;2022-09-01T05:18:11;13.90;99.90
19813;DHT22;10066;48.108;11.448;2022-09-01T05:20:39;14.00;99.90
19813;DHT22;10066;48.108;11.448;2022-09-01T05:23:09;14.00;99.90
19813;DHT22;10066;48.108;11.448;2022-09-01T05:25:39;14.00;99.90
19813;DHT22;10066;48.108;11.448;2022-09-01T05:28:09;14.00;99.90
19813;DHT22;10066;48.108;11.448;2022-09-01T05:30:36;14.00;99.90
19813;DHT22;10066;48.108;11.448;2022-09-01T05:33:04;14.00;99.90
19813;DHT22;10066;48.108;11.448;2022-09-01T05:35:37;14.10;99.90
19813;DHT22;10066;48.108;11.448;2022-09-01T05:38:11;14.10;99.90
19813;DHT22;10066;48.108;11.448;2022-09-01T05:40:40;14.20;99.90
19813;DHT22;10066;48.108;11.448;2022-09-01T05:43:09;14.20;99.90
19813;DHT22;10066;48.108;11.448;2022-09-01T05:45:39;14.20;99.90
19813;DHT22;10066;48.108;11.448;2022-09-01T05:48:09;14.30;99.90
19813;DHT22;10066;48.108;11.448;2022-09-01T05:50:39;14.30;99.90
19813;DHT22;10066;48.108;11.448;2022-09-01T05:53:07;14.30;99.90
19813;DHT22;10066;48.108;11.448;2022-09-01T05:55:37;14.40;99.90
19813;DHT22;10066;48.108;11.448;2022-09-01T05:58:04;14.40;99.90
19813;DHT22;10066;48.108;11.448;2022-09-01T06:00:32;14.50;99.90
19813;DHT22;10066;48.108;11.448;2022-09-01T06:03:01;14.50;99.90
19813;DHT22;10066;48.108;11.448;2022-09-01T06:05:34;14.50;99.90
19813;DHT22;10066;48.108;11.448;2022-09-01T06:08:03;14.60;99.90
19813;DHT22;10066;48.108;11.448;2022-09-01T06:10:30;14.60;99.90
19813;DHT22;10066;48.108;11.448;2022-09-01T06:12:59;14.70;99.90
19813;DHT22;10066;48.108;11.448;2022-09-01T06:15:27;14.80;99.90
19813;DHT22;10066;48.108;11.448;2022-09-01T06:17:55;14.80;99.90
19813;DHT22;10066;48.108;11.448;2022-09-01T06:20:22;14.90;99.90
19813;DHT22;10066;48.108;11.448;2022-09-01T06:22:49;15.00;99.90
19813;DHT22;10066;48.108;11.448;2022-09-01T06:25:17;15.00;99.90
19813;DHT22;10066;48.108;11.448;2022-09-01T06:27:45;15.00;99.90
19813;DHT22;10066;48.108;11.448;2022-09-01T06:30:15;15.00;99.90
19813;DHT22;10066;48.108;11.448;2022-09-01T06:32:45;15.10;99.90
19813;DHT22;10066;48.108;11.448;2022-09-01T06:35:14;15.10;99.90
19813;DHT22;10066;48.108;11.448;2022-09-01T06:37:43;15.20;99.90
19813;DHT22;10066;48.108;11.448;2022-09-01T06:40:12;15.20;99.90
19813;DHT22;10066;48.108;11.448;2022-09-01T06:42:43;15.20;99.90
19813;DHT22;10066;48.108;11.448;2022-09-01T06:45:13;15.30;99.90
19813;DHT22;10066;48.108;11.448;2022-09-01T06:47:41;15.30;99.90
19813;DHT22;10066;48.108;11.448;2022-09-01T06:50:10;15.40;99.90
19813;DHT22;10066;48.108;11.448;2022-09-01T06:52:40;15.40;99.90
19813;DHT22;10066;48.108;11.448;2022-09-01T06:55:08;15.50;99.90
19813;DHT22;10066;48.108;11.448;2022-09-01T06:57:37;15.50;99.90
19813;DHT22;10066;48.108;11.448;2022-09-01T07:00:06;15.60;99.90
19813;DHT22;10066;48.108;11.448;2022-09-01T07:02:44;15.60;99.90
19813;DHT22;10066;48.108;11.448;2022-09-01T07:05:12;15.60;99.90
19813;DHT22;10066;48.108;11.448;2022-09-01T07:07:46;15.60;99.90
19813;DHT22;10066;48.108;11.448;2022-09-01T07:10:16;15.70;99.90
19813;DHT22;10066;48.108;11.448;2022-09-01T07:12:47;15.70;99.90
19813;DHT22;10066;48.108;11.448;2022-09-01T07:15:15;15.80;99.90
19813;DHT22;10066;48.108;11.448;2022-09-01T07:17:47;15.90;99.90
19813;DHT22;10066;48.108;11.448;2022-09-01T07:20:16;16.00;99.90
19813;DHT22;10066;48.108;11.448;2022-09-01T07:22:43;16.10;99.90
19813;DHT22;10066;48.108;11.448;2022-09-01T07:25:10;16.20;99.90
19813;DHT22;10066;48.108;11.448;2022-09-01T07:27:37;16.20;99.90
19813;DHT22;10066;48.108;11.448;2022-09-01T07:30:06;16.30;99.90
19813;DHT22;10066;48.108;11.448;2022-09-01T07:32:35;16.40;99.90
19813;DHT22;10066;48.108;11.448;2022-09-01T07:35:06;16.50;99.90
19813;DHT22;10066;48.108;11.448;2022-09-01T07:37:33;16.60;99.90
19813;DHT22;10066;48.108;11.448;2022-09-01T07:40:05;16.70;99.90
19813;DHT22;10066;48.108;11.448;2022-09-01T07:42:33;16.70;99.90
19813;DHT22;10066;48.108;11.448;2022-09-01T07:45:04;16.70;99.90
19813;DHT22;10066;48.108;11.448;2022-09-01T07:47:34;16.70;99.90
19813;DHT22;10066;48.108;11.448;2022-09-01T07:50:05;16.80;99.90
19813;DHT22;10066;48.108;11.448;2022-09-01T07:52:33;16.90;99.90
19813;DHT22;10066;48.108;11.448;2022-09-01T07:55:01;17.00;99.90
19813;DHT22;10066;48.108;11.448;2022-09-01T07:57:28;17.10;99.90
19813;DHT22;10066;48.108;11.448;2022-09-01T07:59:55;17.20;99.90
19813;DHT22;10066;48.108;11.448;2022-09-01T08:02:22;17.30;99.90
19813;DHT22;10066;48.108;11.448;2022-09-01T08:04:49;17.40;99.90
19813;DHT22;10066;48.108;11.448;2022-09-01T08:07:18;17.50;99.90
19813;DHT22;10066;48.108;11.448;2022-09-01T08:09:45;17.70;99.90
19813;DHT22;10066;48.108;11.448;2022-09-01T08:12:12;17.80;99.90
19813;DHT22;10066;48.108;11.448;2022-09-01T08:14:39;17.90;99.90
19813;DHT22;10066;48.108;11.448;2022-09-01T08:17:40;18.00;99.90
19813;DHT22;10066;48.108;11.448;2022-09-01T08:20:08;18.20;99.90
19813;DHT22;10066;48.108;11.448;2022-09-01T08:22:37;18.30;99.90
19813;DHT22;10066;48.108;11.448;2022-09-01T08:25:05;18.40;99.90
19813;DHT22;10066;48.108;11.448;2022-09-01T08:27:32;18.40;99.90
19813;DHT22;10066;48.108;11.448;2022-09-01T08:30:01;18.40;99.90
19813;DHT22;10066;48.108;11.448;2022-09-01T08:32:29;18.50;99.90
19813;DHT22;10066;48.108;11.448;2022-09-01T08:34:57;18.70;99.90
19813;DHT22;10066;48.108;11.448;2022-09-01T08:37:24;18.80;99.90
19813;DHT22;10066;48.108;11.448;2022-09-01T08:39:53;18.90;99.90
19813;DHT22;10066;48.108;11.448;2022-09-01T08:42:29;19.00;99.90
19813;DHT22;10066;48.108;11.448;2022-09-01T08:45:04;19.10;99.90
19813;DHT22;10066;48.108;11.448;2022-09-01T08:47:32;19.30;99.90
19813;DHT22;10066;48.108;11.448;2022-09-01T08:50:00;19.40;99.90
19813;DHT22;10066;48.108;11.448;2022-09-01T08:52:30;19.40;99.90
19813;DHT22;10066;48.108;11.448;2022-09-01T08:55:03;19.20;99.90
19813;DHT22;10066;48.108;11.448;2022-09-01T08:57:34;18.90;99.90
19813;DHT22;10066;48.108;11.448;2022-09-01T09:00:02;18.80;99.90
19813;DHT22;10066;48.108;11.448;2022-09-01T09:02:38;18.70;99.90
19813;DHT22;10066;48.108;11.448;2022-09-01T09:05:21;18.60;99.90
19813;DHT22;10066;48.108;11.448;2022-09-01T09:08:15;18.40;99.90
19813;DHT22;10066;48.108;11.448;2022-09-01T09:10:54;18.50;99.90
19813;DHT22;10066;48.108;11.448;2022-09-01T09:13:34;18.60;99.90
19813;DHT22;10066;48.108;11.448;2022-09-01T09:16:07;18.80;99.90
19813;DHT22;10066;48.108;11.448;2022-09-01T09:18:39;18.90;99.90
19813;DHT22;10066;48.108;11.448;2022-09-01T09:21:14;18.70;99.90
19813;DHT22;10066;48.108;11.448;2022-09-01T09:23:45;18.60;99.90
19813;DHT22;10066;48.108;11.448;2022-09-01T09:26:15;18.60;99.90
19813;DHT22;10066;48.108;11.448;2022-09-01T09:28:45;18.60;99.90
19813;DHT22;10066;48.108;11.448;2022-09-01T09:32:00;18.40;99.90
19813;DHT22;10066;48.108;11.448;2022-09-01T09:34:34;18.50;99.90
19813;DHT22;10066;48.108;11.448;2022-09-01T09:37:16;18.50;99.90
19813;DHT22;10066;48.108;11.448;2022-09-01T09:39:45;18.30;99.90
19813;DHT22;10066;48.108;11.448;2022-09-01T09:42:28;18.10;99.90
19813;DHT22;10066;48.108;11.448;2022-09-01T09:44:55;18.00;99.90
19813;DHT22;10066;48.108;11.448;2022-09-01T09:47:35;18.00;99.90
19813;DHT22;10066;48.108;11.448;2022-09-01T09:50:21;18.00;99.90
19813;DHT22;10066;48.108;11.448;2022-09-01T09:52:51;18.10;99.90
19813;DHT22;10066;48.108;11.448;2022-09-01T09:55:22;18.20;99.90
19813;DHT22;10066;48.108;11.448;2022-09-01T09:57:54;18.30;99.90
19813;DHT22;10066;48.108;11.448;2022-09-01T10:00:23;18.40;99.90
19813;DHT22;10066;48.108;11.448;2022-09-01T10:02:53;18.60;99.90
19813;DHT22;10066;48.108;11.448;2022-09-01T10:05:28;18.70;99.90
19813;DHT22;10066;48.108;11.448;2022-09-01T10:07:57;18.80;99.90
19813;DHT22;10066;48.108;11.448;2022-09-01T10:10:29;18.80;99.90
19813;DHT22;10066;48.108;11.448;2022-09-01T10:12:58;18.60;99.90
19813;DHT22;10066;48.108;11.448;2022-09-01T10:15:29;18.40;99.90
19813;DHT22;10066;48.108;11.448;2022-09-01T10:18:01;18.20;99.90
19813;DHT22;10066;48.108;11.448;2022-09-01T10:20:30;18.00;99.90
19813;DHT22;10066;48.108;11.448;2022-09-01T10:23:01;18.00;99.90
19813;DHT22;10066;48.108;11.448;2022-09-01T10:25:31;18.10;99.90
19813;DHT22;10066;48.108;11.448;2022-09-01T10:28:07;18.20;99.90
19813;DHT22;10066;48.108;11.448;2022-09-01T10:30:37;18.20;99.90
19813;DHT22;10066;48.108;11.448;2022-09-01T10:33:07;18.30;99.90
19813;DHT22;10066;48.108;11.448;2022-09-01T10:35:37;18.20;99.90
19813;DHT22;10066;48.108;11.448;2022-09-01T10:38:08;18.20;99.90
19813;DHT22;10066;48.108;11.448;2022-09-01T10:40:37;18.20;99.90
19813;DHT22;10066;48.108;11.448;2022-09-01T10:43:32;18.30;99.90
19813;DHT22;10066;48.108;11.448;2022-09-01T10:46:28;18.30;99.90
19813;DHT22;10066;48.108;11.448;2022-09-01T10:49:20;18.40;99.90
19813;DHT22;10066;48.108;11.448;2022-09-01T10:51:47;18.70;99.90
19813;DHT22;10066;48.108;11.448;2022-09-01T10:54:55;18.70;99.90
19813;DHT22;10066;48.108;11.448;2022-09-01T10:57:46;18.90;99.90
19813;DHT22;10066;48.108;11.448;2022-09-01T11:00:45;19.00;99.90
19813;DHT22;10066;48.108;11.448;2022-09-01T11:03:38;19.30;99.90
19813;DHT22;10066;48.108;11.448;2022-09-01T11:06:06;19.40;99.90
19813;DHT22;10066;48.108;11.448;2022-09-01T11:08:41;19.70;99.90
19813;DHT22;10066;48.108;11.448;2022-09-01T11:11:22;19.90;99.90
19813;DHT22;10066;48.108;11.448;2022-09-01T11:13:53;20.00;99.90
19813;DHT22;10066;48.108;11.448;2022-09-01T11:16:42;20.00;99.90
19813;DHT22;10066;48.108;11.448;2022-09-01T11:19:31;20.10;99.90
19813;DHT22;10066;48.108;11.448;2022-09-01T11:22:24;20.00;99.90
19813;DHT22;10066;48.108;11.448;2022-09-01T11:25:12;20.00;99.90
19813;DHT22;10066;48.108;11.448;2022-09-01T11:27:58;20.00;99.90
19813;DHT22;10066;48.108;11.448;2022-09-01T11:30:35;19.90;99.90
19813;DHT22;10066;48.108;11.448;2022-09-01T11:33:24;19.80;99.90
19813;DHT22;10066;48.108;11.448;2022-09-01T11:36:00;19.90;99.90
19813;DHT22;10066;48.108;11.448;2022-09-01T11:38:28;19.90;99.90
19813;DHT22;10066;48.108;11.448;2022-09-01T11:40:57;20.00;99.90
19813;DHT22;10066;48.108;11.448;2022-09-01T11:43:25;20.00;99.90
19813;DHT22;10066;48.108;11.448;2022-09-01T11:46:01;20.00;99.90
19813;DHT22;10066;48.108;11.448;2022-09-01T11:48:30;20.00;99.90
19813;DHT22;10066;48.108;11.448;2022-09-01T11:50:59;20.10;99.90
19813;DHT22;10066;48.108;11.448;2022-09-01T11:53:28;20.10;99.90
19813;DHT22;10066;48.108;11.448;2022-09-01T11:56:09;20.20;99.90
19813;DHT22;10066;48.108;11.448;2022-09-01T11:58:37;20.30;99.90
19813;DHT22;10066;48.108;11.448;2022-09-01T12:01:18;20.50;99.90
19813;DHT22;10066;48.108;11.448;2022-09-01T12:03:48;20.50;99.90
19813;DHT22;10066;48.108;11.448;2022-09-01T12:06:19;20.60;99.90
19813;DHT22;10066;48.108;11.448;2022-09-01T12:08:53;20.70;99.90
19813;DHT22;10066;48.108;11.448;2022-09-01T12:11:23;20.80;99.90
19813;DHT22;10066;48.108;11.448;2022-09-01T12:13:57;21.00;99.90
19813;DHT22;10066;48.108;11.448;2022-09-01T12:16:25;21.00;99.90
19813;DHT22;10066;48.108;11.448;2022-09-01T12:18:55;20.90;99.90
19813;DHT22;10066;48.108;11.448;2022-09-01T12:21:25;20.80;99.90
19813;DHT22;10066;48.108;11.448;2022-09-01T12:23:53;20.90;99.90
19813;DHT22;10066;48.108;11.448;2022-09-01T12:26:24;20.90;99.90
19813;DHT22;10066;48.108;11.448;2022-09-01T12:28:51;20.80;99.90
19813;DHT22;10066;48.108;11.448;2022-09-01T12:31:22;20.70;99.90
19813;DHT22;10066;48.108;11.448;2022-09-01T12:33:51;20.80;99.90
19813;DHT22;10066;48.108;11.448;2022-09-01T12:36:22;20.80;99.90
19813;DHT22;10066;48.108;11.448;2022-09-01T12:38:51;20.90;99.90
19813;DHT22;10066;48.108;11.448;2022-09-01T12:41:34;21.00;99.90
19813;DHT22;10066;48.108;11.448;2022-09-01T12:44:28;21.00;99.90
19813;DHT22;10066;48.108;11.448;2022-09-01T12:46:57;20.90;99.90
19813;DHT22;10066;48.108;11.448;2022-09-01T12:49:34;20.80;99.90
19813;DHT22;10066;48.108;11.448;2022-09-01T12:52:20;20.90;99.90
19813;DHT22;10066;48.108;11.448;2022-09-01T12:54:52;21.20;99.90
19813;DHT22;10066;48.108;11.448;2022-09-01T12:57:25;21.40;99.90
19813;DHT22;10066;48.108;11.448;2022-09-01T13:00:12;21.50;99.90
19813;DHT22;10066;48.108;11.448;2022-09-01T13:02:41;21.40;99.90
19813;DHT22;10066;48.108;11.448;2022-09-01T13:05:20;21.20;99.90
19813;DHT22;10066;48.108;11.448;2022-09-01T13:07:51;21.20;99.90
19813;DHT22;10066;48.108;11.448;2022-09-01T13:10:18;21.20;99.90
19813;DHT22;10066;48.108;11.448;2022-09-01T13:12:46;21.10;99.90
19813;DHT22;10066;48.108;11.448;2022-09-01T13:15:13;21.00;99.90
19813;DHT22;10066;48.108;11.448;2022-09-01T13:17:40;20.90;99.90
19813;DHT22;10066;48.108;11.448;2022-09-01T13:20:08;20.90;99.90
19813;DHT22;10066;48.108;11.448;2022-09-01T13:22:36;20.80;99.90
19813;DHT22;10066;48.108;11.448;2022-09-01T13:25:05;20.70;99.90
19813;DHT22;10066;48.108;11.448;2022-09-01T13:27:33;20.70;99.90
19813;DHT22;10066;48.108;11.448;2022-09-01T13:30:00;20.60;99.90
19813;DHT22;10066;48.108;11.448;2022-09-01T13:32:27;20.50;99.90
19813;DHT22;10066;48.108;11.448;2022-09-01T13:34:54;20.30;99.90
19813;DHT22;10066;48.108;11.448;2022-09-01T13:37:22;20.30;99.90
19813;DHT22;10066;48.108;11.448;2022-09-01T13:39:50;20.30;99.90
19813;DHT22;10066;48.108;11.448;2022-09-01T13:42:18;20.40;99.90
19813;DHT22;10066;48.108;11.448;2022-09-01T13:44:46;20.40;99.90
19813;DHT22;10066;48.108;11.448;2022-09-01T13:47:13;20.50;99.90
19813;DHT22;10066;48.108;11.448;2022-09-01T13:49:40;20.60;99.90
19813;DHT22;10066;48.108;11.448;2022-09-01T13:52:07;20.70;99.90
19813;DHT22;10066;48.108;11.448;2022-09-01T13:54:34;20.80;99.90
19813;DHT22;10066;48.108;11.448;2022-09-01T13:57:01;20.90;99.90
19813;DHT22;10066;48.108;11.448;2022-09-01T13:59:29;20.80;99.90
19813;DHT22;10066;48.108;11.448;2022-09-01T14:01:57;20.70;99.90
19813;DHT22;10066;48.108;11.448;2022-09-01T14:04:25;20.50;99.90
19813;DHT22;10066;48.108;11.448;2022-09-01T14:06:52;20.40;99.90
19813;DHT22;10066;48.108;11.448;2022-09-01T14:09:19;20.40;99.90
19813;DHT22;10066;48.108;11.448;2022-09-01T14:11:46;20.40;99.90
19813;DHT22;10066;48.108;11.448;2022-09-01T14:14:13;20.50;99.90
19813;DHT22;10066;48.108;11.448;2022-09-01T14:16:42;20.50;99.90
19813;DHT22;10066;48.108;11.448;2022-09-01T14:19:11;20.50;99.90
19813;DHT22;10066;48.108;11.448;2022-09-01T14:21:38;20.50;99.90
19813;DHT22;10066;48.108;11.448;2022-09-01T14:24:05;20.50;99.90
19813;DHT22;10066;48.108;11.448;2022-09-01T14:26:33;20.50;99.90
19813;DHT22;10066;48.108;11.448;2022-09-01T14:28:59;20.50;99.90
19813;DHT22;10066;48.108;11.448;2022-09-01T14:31:27;20.50;99.90
19813;DHT22;10066;48.108;11.448;2022-09-01T14:33:56;20.50;99.90
19813;DHT22;10066;48.108;11.448;2022-09-01T14:36:25;20.50;99.90
19813;DHT22;10066;48.108;11.448;2022-09-01T14:38:52;20.50;99.90
19813;DHT22;10066;48.108;11.448;2022-09-01T14:41:21;20.50;99.90
19813;DHT22;10066;48.108;11.448;2022-09-01T14:43:50;20.50;99.90
19813;DHT22;10066;48.108;11.448;2022-09-01T14:46:17;20.40;99.90
19813;DHT22;10066;48.108;11.448;2022-09-01T14:48:45;20.40;99.50
19813;DHT22;10066;48.108;11.448;2022-09-01T14:51:21;20.30;99.10
19813;DHT22;10066;48.108;11.448;2022-09-01T14:53:49;20.30;98.40
19813;DHT22;10066;48.108;11.448;2022-09-01T14:56:18;20.20;97.50
19813;DHT22;10066;48.108;11.448;2022-09-01T14:58:45;20.30;97.30
19813;DHT22;10066;48.108;11.448;2022-09-01T15:01:13;20.30;97.80
19813;DHT22;10066;48.108;11.448;2022-09-01T15:03:41;20.20;96.50
19813;DHT22;10066;48.108;11.448;2022-09-01T15:06:11;20.20;96.00
19813;DHT22;10066;48.108;11.448;2022-09-01T15:08:40;20.20;94.90
19813;DHT22;10066;48.108;11.448;2022-09-01T15:11:08;20.10;96.40
19813;DHT22;10066;48.108;11.448;2022-09-01T15:13:37;20.10;96.70
19813;DHT22;10066;48.108;11.448;2022-09-01T15:16:11;20.10;97.80
19813;DHT22;10066;48.108;11.448;2022-09-01T15:18:38;20.10;97.60
19813;DHT22;10066;48.108;11.448;2022-09-01T15:21:05;20.10;97.70
19813;DHT22;10066;48.108;11.448;2022-09-01T15:23:32;20.10;98.00
19813;DHT22;10066;48.108;11.448;2022-09-01T15:26:00;20.10;98.30
19813;DHT22;10066;48.108;11.448;2022-09-01T15:28:27;20.10;98.80
19813;DHT22;10066;48.108;11.448;2022-09-01T15:30:54;20.20;98.40
19813;DHT22;10066;48.108;11.448;2022-09-01T15:33:24;20.20;98.60
19813;DHT22;10066;48.108;11.448;2022-09-01T15:35:51;20.20;98.40
19813;DHT22;10066;48.108;11.448;2022-09-01T15:38:18;20.20;97.90
19813;DHT22;10066;48.108;11.448;2022-09-01T15:40:46;20.20;97.40
19813;DHT22;10066;48.108;11.448;2022-09-01T15:43:15;20.30;97.50